sensor_id;sensor_type;location;lat;lon;timestamp;pressure;altitude;pressure_sealevel;temperature;humidity
71621;BME280;59471;42.254;23.102;2022-12-01T00:00:00;95883.75;;;5.90;77.21
71621;BME280;59471;42.254;23.102;2022-12-01T00:02:27;95890.22;;;5.58;78.77
71621;BME280;59471;42.254;23.102;2022-12-01T00:04:53;95887.78;;;6.02;76.87
71621;BME280;59471;42.254;23.102;2022-12-01T00:07:19;95888.25;;;5.88;76.90
71621;BME280;59471;42.254;23.102;2022-12-01T00:09:44;95888.09;;;5.71;78.38
71621;BME280;59471;42.254;23.102;2022-12-01T00:12:29;95884.25;;;5.48;79.08
71621;BME280;59471;42.254;23.102;2022-12-01T00:14:55;95883.94;;;5.78;78.11
71621;BME280;59471;42.254;23.102;2022-12-01T00:17:28;95876.16;;;5.78;78.22
71621;BME280;59471;42.254;23.102;2022-12-01T00:19:55;95885.44;;;5.26;79.71
71621;BME280;59471;42.254;23.102;2022-12-01T00:22:21;95888.28;;;5.60;78.78
71621;BME280;59471;42.254;23.102;2022-12-01T00:24:46;95885.91;;;5.94;77.09
71621;BME280;59471;42.254;23.102;2022-12-01T00:27:12;95885.63;;;5.52;78.18
71621;BME280;59471;42.254;23.102;2022-12-01T00:29:37;95893.78;;;5.57;78.98
71621;BME280;59471;42.254;23.102;2022-12-01T00:32:03;95884.78;;;5.51;78.27
71621;BME280;59471;42.254;23.102;2022-12-01T00:34:29;95885.22;;;5.74;76.62
71621;BME280;59471;42.254;23.102;2022-12-01T00:36:54;95888.53;;;5.67;77.84
71621;BME280;59471;42.254;23.102;2022-12-01T00:39:20;95885.72;;;5.78;77.19
71621;BME280;59471;42.254;23.102;2022-12-01T00:41:45;95888.56;;;5.57;77.96
71621;BME280;59471;42.254;23.102;2022-12-01T00:44:11;95892.31;;;5.72;77.49
71621;BME280;59471;42.254;23.102;2022-12-01T00:46:36;95889.69;;;5.54;77.84
71621;BME280;59471;42.254;23.102;2022-12-01T00:49:02;95894.25;;;5.70;77.95
71621;BME280;59471;42.254;23.102;2022-12-01T00:51:28;95891.16;;;5.85;76.92
71621;BME280;59471;42.254;23.102;2022-12-01T00:53:54;95875.97;;;5.62;77.91
71621;BME280;59471;42.254;23.102;2022-12-01T00:56:19;95876.34;;;5.95;75.13
71621;BME280;59471;42.254;23.102;2022-12-01T00:58:45;95879.44;;;5.80;76.88
71621;BME280;59471;42.254;23.102;2022-12-01T01:01:11;95872.22;;;5.74;76.91
71621;BME280;59471;42.254;23.102;2022-12-01T01:03:37;95875.00;;;5.63;77.27
71621;BME280;59471;42.254;23.102;2022-12-01T01:06:07;95869.63;;;5.92;76.29
71621;BME280;59471;42.254;23.102;2022-12-01T01:08:35;95866.50;;;5.71;76.67
71621;BME280;59471;42.254;23.102;2022-12-01T01:11:01;95866.28;;;5.82;76.57
71621;BME280;59471;42.254;23.102;2022-12-01T01:13:27;95863.06;;;5.70;77.69
71621;BME280;59471;42.254;23.102;2022-12-01T01:16:01;95856.69;;;5.82;77.25
71621;BME280;59471;42.254;23.102;2022-12-01T01:18:28;95872.16;;;5.84;76.40
71621;BME280;59471;42.254;23.102;2022-12-01T01:21:00;95865.56;;;5.90;77.27
71621;BME280;59471;42.254;23.102;2022-12-01T01:23:29;95870.94;;;5.78;77.38
71621;BME280;59471;42.254;23.102;2022-12-01T01:26:06;95860.84;;;5.75;77.20
71621;BME280;59471;42.254;23.102;2022-12-01T01:28:33;95859.81;;;5.68;76.97
71621;BME280;59471;42.254;23.102;2022-12-01T01:31:04;95853.44;;;5.80;76.39
71621;BME280;59471;42.254;23.102;2022-12-01T01:33:30;95853.81;;;5.68;78.34
71621;BME280;59471;42.254;23.102;2022-12-01T01:36:00;95849.78;;;5.73;78.88
71621;BME280;59471;42.254;23.102;2022-12-01T01:38:27;95854.75;;;5.67;78.50
71621;BME280;59471;42.254;23.102;2022-12-01T01:40:53;95861.13;;;5.72;77.32
71621;BME280;59471;42.254;23.102;2022-12-01T01:43:41;95865.78;;;6.14;76.89
71621;BME280;59471;42.254;23.102;2022-12-01T01:46:23;95857.84;;;5.98;76.43
71621;BME280;59471;42.254;23.102;2022-12-01T01:48:59;95855.81;;;5.92;75.67
71621;BME280;59471;42.254;23.102;2022-12-01T01:54:10;95844.28;;;5.76;75.81
71621;BME280;59471;42.254;23.102;2022-12-01T01:56:42;95839.69;;;5.88;75.40
71621;BME280;59471;42.254;23.102;2022-12-01T01:59:10;95838.88;;;5.88;75.22
71621;BME280;59471;42.254;23.102;2022-12-01T02:01:37;95819.94;;;5.77;75.61
71621;BME280;59471;42.254;23.102;2022-12-01T02:04:04;95818.97;;;5.78;75.82
71621;BME280;59471;42.254;23.102;2022-12-01T02:06:29;95820.09;;;5.76;75.58
71621;BME280;59471;42.254;23.102;2022-12-01T02:08:55;95827.22;;;5.74;75.29
71621;BME280;59471;42.254;23.102;2022-12-01T02:23:56;95805.91;;;5.70;76.49
71621;BME280;59471;42.254;23.102;2022-12-01T02:35:38;95796.16;;;5.54;76.70
71621;BME280;59471;42.254;23.102;2022-12-01T02:41:07;95795.34;;;5.54;76.69
71621;BME280;59471;42.254;23.102;2022-12-01T02:46:13;95782.34;;;5.54;76.06
71621;BME280;59471;42.254;23.102;2022-12-01T02:48:44;95797.00;;;5.55;76.85
71621;BME280;59471;42.254;23.102;2022-12-01T02:51:16;95789.41;;;5.44;77.12
71621;BME280;59471;42.254;23.102;2022-12-01T02:53:44;95776.03;;;5.39;76.97
71621;BME280;59471;42.254;23.102;2022-12-01T02:56:12;95770.53;;;5.42;77.42
71621;BME280;59471;42.254;23.102;2022-12-01T02:58:41;95787.13;;;5.58;76.51
71621;BME280;59471;42.254;23.102;2022-12-01T03:04:26;95769.38;;;5.54;76.27
71621;BME280;59471;42.254;23.102;2022-12-01T03:12:27;95783.66;;;5.68;75.49
71621;BME280;59471;42.254;23.102;2022-12-01T03:15:14;95773.69;;;5.63;76.55
71621;BME280;59471;42.254;23.102;2022-12-01T03:20:27;95776.16;;;5.65;76.08
71621;BME280;59471;42.254;23.102;2022-12-01T03:23:04;95773.69;;;5.63;76.30
71621;BME280;59471;42.254;23.102;2022-12-01T03:25:35;95762.69;;;5.69;74.83
71621;BME280;59471;42.254;23.102;2022-12-01T03:28:03;95763.28;;;5.63;75.35
71621;BME280;59471;42.254;23.102;2022-12-01T03:30:32;95756.19;;;5.65;75.45
71621;BME280;59471;42.254;23.102;2022-12-01T03:33:03;95749.28;;;5.56;75.63
71621;BME280;59471;42.254;23.102;2022-12-01T03:35:41;95762.38;;;5.54;76.29
71621;BME280;59471;42.254;23.102;2022-12-01T03:38:25;95753.78;;;5.54;75.96
71621;BME280;59471;42.254;23.102;2022-12-01T03:40:55;95751.88;;;5.56;75.15
71621;BME280;59471;42.254;23.102;2022-12-01T03:43:27;95753.56;;;5.65;75.77
71621;BME280;59471;42.254;23.102;2022-12-01T03:48:37;95745.50;;;5.68;74.89
71621;BME280;59471;42.254;23.102;2022-12-01T03:53:59;95758.69;;;5.57;76.04
71621;BME280;59471;42.254;23.102;2022-12-01T03:56:38;95769.16;;;5.65;75.38
71621;BME280;59471;42.254;23.102;2022-12-01T03:59:09;95772.88;;;5.63;76.07
71621;BME280;59471;42.254;23.102;2022-12-01T04:01:35;95781.13;;;5.58;76.21
71621;BME280;59471;42.254;23.102;2022-12-01T04:04:10;95777.00;;;5.73;75.10
71621;BME280;59471;42.254;23.102;2022-12-01T04:06:38;95771.47;;;5.68;75.27
71621;BME280;59471;42.254;23.102;2022-12-01T04:09:04;95775.41;;;5.72;74.01
71621;BME280;59471;42.254;23.102;2022-12-01T04:11:30;95760.63;;;5.55;75.24
71621;BME280;59471;42.254;23.102;2022-12-01T04:14:14;95751.56;;;5.59;75.00
71621;BME280;59471;42.254;23.102;2022-12-01T04:16:39;95745.34;;;5.52;75.65
71621;BME280;59471;42.254;23.102;2022-12-01T04:19:05;95752.09;;;5.63;75.28
71621;BME280;59471;42.254;23.102;2022-12-01T04:21:30;95738.59;;;5.59;74.98
71621;BME280;59471;42.254;23.102;2022-12-01T04:23:56;95748.69;;;5.62;74.78
71621;BME280;59471;42.254;23.102;2022-12-01T04:26:25;95750.31;;;5.63;75.18
71621;BME280;59471;42.254;23.102;2022-12-01T04:28:51;95770.94;;;5.82;74.71
71621;BME280;59471;42.254;23.102;2022-12-01T04:31:17;95776.13;;;5.82;74.61
71621;BME280;59471;42.254;23.102;2022-12-01T04:33:42;95783.56;;;5.77;74.54
71621;BME280;59471;42.254;23.102;2022-12-01T04:36:08;95779.19;;;5.78;74.60
71621;BME280;59471;42.254;23.102;2022-12-01T04:38:34;95767.09;;;5.69;74.85
71621;BME280;59471;42.254;23.102;2022-12-01T04:41:07;95768.63;;;5.79;74.11
71621;BME280;59471;42.254;23.102;2022-12-01T04:43:34;95780.72;;;5.89;74.13
71621;BME280;59471;42.254;23.102;2022-12-01T04:45:59;95759.81;;;5.90;74.04
71621;BME280;59471;42.254;23.102;2022-12-01T04:48:25;95766.31;;;5.76;73.94
71621;BME280;59471;42.254;23.102;2022-12-01T04:50:50;95788.38;;;5.72;75.17
71621;BME280;59471;42.254;23.102;2022-12-01T04:53:16;95783.31;;;5.89;75.00
71621;BME280;59471;42.254;23.102;2022-12-01T04:55:41;95789.50;;;5.88;74.65
71621;BME280;59471;42.254;23.102;2022-12-01T04:58:07;95780.00;;;5.78;74.81
71621;BME280;59471;42.254;23.102;2022-12-01T05:00:32;95777.09;;;5.81;73.93
71621;BME280;59471;42.254;23.102;2022-12-01T05:02:58;95776.50;;;5.88;73.89
71621;BME280;59471;42.254;23.102;2022-12-01T05:05:25;95773.47;;;5.74;73.71
71621;BME280;59471;42.254;23.102;2022-12-01T05:07:50;95774.72;;;5.70;73.99
71621;BME280;59471;42.254;23.102;2022-12-01T05:10:16;95772.78;;;5.72;73.92
71621;BME280;59471;42.254;23.102;2022-12-01T05:12:44;95772.72;;;5.64;74.62
71621;BME280;59471;42.254;23.102;2022-12-01T05:15:13;95773.81;;;5.79;75.03
71621;BME280;59471;42.254;23.102;2022-12-01T05:17:38;95791.53;;;5.94;73.98
71621;BME280;59471;42.254;23.102;2022-12-01T05:20:05;95793.38;;;5.84;74.45
71621;BME280;59471;42.254;23.102;2022-12-01T05:22:50;95787.19;;;5.85;74.50
71621;BME280;59471;42.254;23.102;2022-12-01T05:25:17;95792.69;;;5.81;74.42
71621;BME280;59471;42.254;23.102;2022-12-01T05:27:43;95782.59;;;5.78;74.34
71621;BME280;59471;42.254;23.102;2022-12-01T05:30:09;95785.41;;;5.67;75.38
71621;BME280;59471;42.254;23.102;2022-12-01T05:32:35;95781.84;;;5.68;74.25
71621;BME280;59471;42.254;23.102;2022-12-01T05:35:01;95784.59;;;5.67;75.55
71621;BME280;59471;42.254;23.102;2022-12-01T05:37:26;95772.78;;;5.72;74.19
71621;BME280;59471;42.254;23.102;2022-12-01T05:39:57;95773.97;;;5.60;75.15
71621;BME280;59471;42.254;23.102;2022-12-01T05:42:23;95767.16;;;5.59;75.09
71621;BME280;59471;42.254;23.102;2022-12-01T05:44:48;95771.25;;;5.62;74.61
71621;BME280;59471;42.254;23.102;2022-12-01T05:47:14;95761.66;;;5.62;75.23
71621;BME280;59471;42.254;23.102;2022-12-01T05:49:39;95754.59;;;5.54;74.57
71621;BME280;59471;42.254;23.102;2022-12-01T05:52:05;95750.25;;;5.55;75.23
71621;BME280;59471;42.254;23.102;2022-12-01T05:54:30;95757.34;;;5.53;74.97
71621;BME280;59471;42.254;23.102;2022-12-01T05:56:56;95775.69;;;5.69;74.47
71621;BME280;59471;42.254;23.102;2022-12-01T05:59:21;95781.41;;;5.73;74.79
71621;BME280;59471;42.254;23.102;2022-12-01T06:01:47;95778.59;;;5.66;74.57
71621;BME280;59471;42.254;23.102;2022-12-01T06:04:12;95776.97;;;5.65;74.74
71621;BME280;59471;42.254;23.102;2022-12-01T06:06:39;95783.41;;;5.61;74.42
71621;BME280;59471;42.254;23.102;2022-12-01T06:09:04;95773.38;;;5.66;74.44
71621;BME280;59471;42.254;23.102;2022-12-01T06:11:30;95768.03;;;5.50;74.97
71621;BME280;59471;42.254;23.102;2022-12-01T06:13:55;95774.56;;;5.54;74.89
71621;BME280;59471;42.254;23.102;2022-12-01T06:16:21;95773.75;;;5.53;74.95
71621;BME280;59471;42.254;23.102;2022-12-01T06:18:46;95779.97;;;5.61;74.16
71621;BME280;59471;42.254;23.102;2022-12-01T06:21:12;95786.63;;;5.55;75.16
71621;BME280;59471;42.254;23.102;2022-12-01T06:23:37;95786.47;;;5.74;74.68
71621;BME280;59471;42.254;23.102;2022-12-01T06:26:03;95763.06;;;5.56;74.37
71621;BME280;59471;42.254;23.102;2022-12-01T06:28:29;95774.78;;;5.61;74.16
71621;BME280;59471;42.254;23.102;2022-12-01T06:30:54;95775.09;;;5.57;74.59
71621;BME280;59471;42.254;23.102;2022-12-01T06:33:20;95784.38;;;5.60;74.52
71621;BME280;59471;42.254;23.102;2022-12-01T06:35:45;95785.34;;;5.59;75.32
71621;BME280;59471;42.254;23.102;2022-12-01T06:38:11;95780.75;;;5.53;74.31
71621;BME280;59471;42.254;23.102;2022-12-01T06:40:36;95783.63;;;5.50;75.28
71621;BME280;59471;42.254;23.102;2022-12-01T06:43:02;95783.34;;;5.53;75.06
71621;BME280;59471;42.254;23.102;2022-12-01T06:45:28;95785.47;;;5.57;75.31
71621;BME280;59471;42.254;23.102;2022-12-01T06:47:55;95779.41;;;5.67;73.88
71621;BME280;59471;42.254;23.102;2022-12-01T06:50:23;95782.50;;;5.70;74.19
71621;BME280;59471;42.254;23.102;2022-12-01T06:52:49;95783.34;;;5.53;75.68
71621;BME280;59471;42.254;23.102;2022-12-01T06:55:14;95781.72;;;5.52;75.71
71621;BME280;59471;42.254;23.102;2022-12-01T06:57:40;95782.16;;;5.65;73.74
71621;BME280;59471;42.254;23.102;2022-12-01T07:00:08;95772.97;;;5.71;73.83
71621;BME280;59471;42.254;23.102;2022-12-01T07:02:34;95765.75;;;5.65;74.14
71621;BME280;59471;42.254;23.102;2022-12-01T07:05:00;95773.19;;;5.77;73.47
71621;BME280;59471;42.254;23.102;2022-12-01T07:07:25;95766.50;;;5.75;73.93
71621;BME280;59471;42.254;23.102;2022-12-01T07:09:51;95774.63;;;5.80;73.92
71621;BME280;59471;42.254;23.102;2022-12-01T07:12:17;95772.88;;;5.80;73.10
71621;BME280;59471;42.254;23.102;2022-12-01T07:14:42;95766.09;;;5.88;73.22
71621;BME280;59471;42.254;23.102;2022-12-01T07:17:08;95760.63;;;5.91;73.12
71621;BME280;59471;42.254;23.102;2022-12-01T07:19:34;95760.34;;;5.94;73.46
71621;BME280;59471;42.254;23.102;2022-12-01T07:22:00;95755.88;;;6.04;72.83
71621;BME280;59471;42.254;23.102;2022-12-01T07:24:26;95765.25;;;5.97;72.97
71621;BME280;59471;42.254;23.102;2022-12-01T07:26:51;95760.56;;;6.00;73.44
71621;BME280;59471;42.254;23.102;2022-12-01T07:29:17;95777.28;;;6.24;73.28
71621;BME280;59471;42.254;23.102;2022-12-01T07:31:42;95767.56;;;6.26;73.71
71621;BME280;59471;42.254;23.102;2022-12-01T07:34:11;95764.84;;;6.36;73.17
71621;BME280;59471;42.254;23.102;2022-12-01T07:36:39;95771.59;;;6.46;73.11
71621;BME280;59471;42.254;23.102;2022-12-01T07:39:06;95789.25;;;6.61;73.33
71621;BME280;59471;42.254;23.102;2022-12-01T07:41:32;95774.19;;;6.81;73.05
71621;BME280;59471;42.254;23.102;2022-12-01T07:43:58;95773.06;;;6.49;71.99
71621;BME280;59471;42.254;23.102;2022-12-01T07:46:26;95769.72;;;6.31;71.31
71621;BME280;59471;42.254;23.102;2022-12-01T07:48:53;95771.28;;;6.23;71.43
71621;BME280;59471;42.254;23.102;2022-12-01T07:51:20;95756.28;;;6.17;71.50
71621;BME280;59471;42.254;23.102;2022-12-01T07:53:48;95746.91;;;6.24;71.29
71621;BME280;59471;42.254;23.102;2022-12-01T07:56:16;95758.22;;;6.15;71.53
71621;BME280;59471;42.254;23.102;2022-12-01T07:58:42;95751.06;;;6.17;72.71
71621;BME280;59471;42.254;23.102;2022-12-01T08:01:16;95755.97;;;6.20;71.50
71621;BME280;59471;42.254;23.102;2022-12-01T08:03:43;95767.81;;;6.41;71.07
71621;BME280;59471;42.254;23.102;2022-12-01T08:06:10;95757.63;;;6.47;70.71
71621;BME280;59471;42.254;23.102;2022-12-01T08:08:38;95764.31;;;6.50;71.01
71621;BME280;59471;42.254;23.102;2022-12-01T08:11:09;95766.28;;;6.56;70.68
71621;BME280;59471;42.254;23.102;2022-12-01T08:13:36;95772.41;;;6.47;70.57
71621;BME280;59471;42.254;23.102;2022-12-01T08:16:07;95759.75;;;6.52;72.88
71621;BME280;59471;42.254;23.102;2022-12-01T08:18:36;95765.81;;;6.61;73.10
71621;BME280;59471;42.254;23.102;2022-12-01T08:21:03;95763.09;;;6.70;73.71
71621;BME280;59471;42.254;23.102;2022-12-01T08:23:30;95772.03;;;7.02;73.17
71621;BME280;59471;42.254;23.102;2022-12-01T08:26:03;95781.19;;;7.14;72.50
71621;BME280;59471;42.254;23.102;2022-12-01T08:28:29;95782.69;;;6.83;72.70
71621;BME280;59471;42.254;23.102;2022-12-01T08:30:55;95792.47;;;6.89;72.95
71621;BME280;59471;42.254;23.102;2022-12-01T08:33:21;95796.19;;;6.78;73.00
71621;BME280;59471;42.254;23.102;2022-12-01T08:35:47;95797.38;;;6.92;73.35
71621;BME280;59471;42.254;23.102;2022-12-01T08:38:12;95795.84;;;7.15;72.82
71621;BME280;59471;42.254;23.102;2022-12-01T08:40:38;95803.59;;;6.99;73.46
71621;BME280;59471;42.254;23.102;2022-12-01T08:43:04;95825.25;;;7.42;72.18
71621;BME280;59471;42.254;23.102;2022-12-01T08:45:30;95807.47;;;7.37;71.57
71621;BME280;59471;42.254;23.102;2022-12-01T08:47:56;95813.06;;;7.08;73.05
71621;BME280;59471;42.254;23.102;2022-12-01T08:50:27;95819.41;;;6.71;73.94
71621;BME280;59471;42.254;23.102;2022-12-01T08:52:53;95809.34;;;6.77;73.48
71621;BME280;59471;42.254;23.102;2022-12-01T08:55:20;95799.22;;;6.73;73.28
71621;BME280;59471;42.254;23.102;2022-12-01T08:57:46;95800.66;;;6.94;71.42
71621;BME280;59471;42.254;23.102;2022-12-01T09:00:12;95807.91;;;6.82;71.43
71621;BME280;59471;42.254;23.102;2022-12-01T09:02:38;95810.31;;;6.76;70.65
71621;BME280;59471;42.254;23.102;2022-12-01T09:05:04;95796.38;;;6.85;70.53
71621;BME280;59471;42.254;23.102;2022-12-01T09:07:30;95798.66;;;6.88;69.94
71621;BME280;59471;42.254;23.102;2022-12-01T09:09:55;95792.78;;;6.86;70.63
71621;BME280;59471;42.254;23.102;2022-12-01T09:12:21;95795.44;;;6.94;69.97
71621;BME280;59471;42.254;23.102;2022-12-01T09:14:46;95797.38;;;6.92;70.61
71621;BME280;59471;42.254;23.102;2022-12-01T09:17:15;95792.53;;;6.97;69.35
71621;BME280;59471;42.254;23.102;2022-12-01T09:19:41;95801.22;;;6.80;70.14
71621;BME280;59471;42.254;23.102;2022-12-01T09:22:09;95790.78;;;6.71;69.76
71621;BME280;59471;42.254;23.102;2022-12-01T09:24:35;95801.44;;;6.60;69.84
71621;BME280;59471;42.254;23.102;2022-12-01T09:27:01;95791.03;;;6.60;70.45
71621;BME280;59471;42.254;23.102;2022-12-01T09:29:28;95783.09;;;6.70;70.14
71621;BME280;59471;42.254;23.102;2022-12-01T09:31:55;95786.28;;;6.82;69.81
71621;BME280;59471;42.254;23.102;2022-12-01T09:34:23;95787.59;;;6.86;69.27
71621;BME280;59471;42.254;23.102;2022-12-01T09:36:49;95794.59;;;6.93;69.51
71621;BME280;59471;42.254;23.102;2022-12-01T09:39:19;95792.91;;;6.76;69.96
71621;BME280;59471;42.254;23.102;2022-12-01T09:42:10;95795.97;;;6.71;70.51
71621;BME280;59471;42.254;23.102;2022-12-01T09:44:54;95791.69;;;6.62;69.27
71621;BME280;59471;42.254;23.102;2022-12-01T09:49:58;95782.91;;;6.63;70.44
71621;BME280;59471;42.254;23.102;2022-12-01T09:52:47;95784.31;;;6.49;70.17
71621;BME280;59471;42.254;23.102;2022-12-01T09:55:18;95780.16;;;6.65;69.08
71621;BME280;59471;42.254;23.102;2022-12-01T09:57:47;95791.91;;;6.69;69.79
71621;BME280;59471;42.254;23.102;2022-12-01T10:00:17;95784.28;;;6.76;69.91
71621;BME280;59471;42.254;23.102;2022-12-01T10:03:16;95789.50;;;6.84;69.26
71621;BME280;59471;42.254;23.102;2022-12-01T10:05:53;95786.47;;;6.88;67.89
71621;BME280;59471;42.254;23.102;2022-12-01T10:08:25;95785.28;;;6.83;69.28
71621;BME280;59471;42.254;23.102;2022-12-01T10:10:56;95794.22;;;6.80;68.65
71621;BME280;59471;42.254;23.102;2022-12-01T10:13:26;95795.13;;;6.71;69.30
71621;BME280;59471;42.254;23.102;2022-12-01T10:24:28;95783.44;;;6.41;70.51
71621;BME280;59471;42.254;23.102;2022-12-01T10:29:54;95777.91;;;6.70;69.09
71621;BME280;59471;42.254;23.102;2022-12-01T10:32:51;95767.50;;;6.70;69.46
71621;BME280;59471;42.254;23.102;2022-12-01T10:35:30;95769.97;;;6.71;69.94
71621;BME280;59471;42.254;23.102;2022-12-01T10:38:04;95776.34;;;6.85;68.51
71621;BME280;59471;42.254;23.102;2022-12-01T10:40:31;95763.09;;;6.70;68.48
71621;BME280;59471;42.254;23.102;2022-12-01T10:43:00;95776.47;;;6.76;68.97
71621;BME280;59471;42.254;23.102;2022-12-01T10:45:29;95771.97;;;6.86;69.40
71621;BME280;59471;42.254;23.102;2022-12-01T10:48:18;95784.41;;;7.00;69.40
71621;BME280;59471;42.254;23.102;2022-12-01T10:51:12;95783.59;;;7.08;67.25
71621;BME280;59471;42.254;23.102;2022-12-01T10:53:40;95776.47;;;6.76;68.36
71621;BME280;59471;42.254;23.102;2022-12-01T10:56:09;95763.41;;;6.67;68.43
71621;BME280;59471;42.254;23.102;2022-12-01T10:58:57;95771.53;;;6.64;69.65
71621;BME280;59471;42.254;23.102;2022-12-01T11:01:31;95771.06;;;6.69;69.78
71621;BME280;59471;42.254;23.102;2022-12-01T11:04:20;95768.16;;;7.06;68.17
71621;BME280;59471;42.254;23.102;2022-12-01T11:06:52;95770.28;;;7.11;67.99
71621;BME280;59471;42.254;23.102;2022-12-01T11:09:21;95763.88;;;6.97;69.50
71621;BME280;59471;42.254;23.102;2022-12-01T11:11:59;95764.19;;;6.94;68.11
71621;BME280;59471;42.254;23.102;2022-12-01T11:14:40;95768.19;;;6.80;69.05
71621;BME280;59471;42.254;23.102;2022-12-01T11:17:24;95771.16;;;6.85;68.67
71621;BME280;59471;42.254;23.102;2022-12-01T11:20:33;95770.03;;;6.62;69.48
71621;BME280;59471;42.254;23.102;2022-12-01T11:26:10;95768.63;;;6.67;69.15
71621;BME280;59471;42.254;23.102;2022-12-01T11:28:42;95771.59;;;6.81;68.63
71621;BME280;59471;42.254;23.102;2022-12-01T11:31:16;95773.72;;;6.51;69.58
71621;BME280;59471;42.254;23.102;2022-12-01T11:33:53;95769.84;;;6.55;70.04
71621;BME280;59471;42.254;23.102;2022-12-01T11:38:49;95774.63;;;6.34;70.24
71621;BME280;59471;42.254;23.102;2022-12-01T11:41:29;95773.34;;;6.38;69.37
71621;BME280;59471;42.254;23.102;2022-12-01T11:44:00;95766.53;;;6.45;70.29
71621;BME280;59471;42.254;23.102;2022-12-01T11:46:35;95780.16;;;6.39;70.61
71621;BME280;59471;42.254;23.102;2022-12-01T11:49:05;95769.03;;;6.55;68.87
71621;BME280;59471;42.254;23.102;2022-12-01T11:51:40;95770.47;;;6.49;70.04
71621;BME280;59471;42.254;23.102;2022-12-01T11:56:43;95766.16;;;6.40;70.10
71621;BME280;59471;42.254;23.102;2022-12-01T11:59:22;95761.94;;;6.39;70.55
71621;BME280;59471;42.254;23.102;2022-12-01T12:05:12;95766.00;;;6.59;69.53
71621;BME280;59471;42.254;23.102;2022-12-01T12:08:00;95772.13;;;6.50;69.85
71621;BME280;59471;42.254;23.102;2022-12-01T12:28:22;95792.16;;;6.32;70.30
71621;BME280;59471;42.254;23.102;2022-12-01T12:43:28;95806.56;;;6.52;70.27
71621;BME280;59471;42.254;23.102;2022-12-01T12:46:09;95807.75;;;6.58;69.00
71621;BME280;59471;42.254;23.102;2022-12-01T12:54:20;95803.38;;;6.58;68.77
71621;BME280;59471;42.254;23.102;2022-12-01T12:57:02;95807.06;;;6.30;69.97
71621;BME280;59471;42.254;23.102;2022-12-01T12:59:44;95798.94;;;6.24;69.53
71621;BME280;59471;42.254;23.102;2022-12-01T13:05:20;95805.44;;;6.29;69.73
71621;BME280;59471;42.254;23.102;2022-12-01T13:08:15;95809.63;;;6.21;70.63
71621;BME280;59471;42.254;23.102;2022-12-01T13:10:46;95813.19;;;6.20;70.68
71621;BME280;59471;42.254;23.102;2022-12-01T13:13:49;95813.09;;;6.30;69.13
71621;BME280;59471;42.254;23.102;2022-12-01T13:16:26;95823.53;;;6.12;70.75
71621;BME280;59471;42.254;23.102;2022-12-01T13:19:02;95824.69;;;6.18;70.21
71621;BME280;59471;42.254;23.102;2022-12-01T13:21:41;95827.47;;;6.16;70.76
71621;BME280;59471;42.254;23.102;2022-12-01T13:24:13;95831.47;;;6.11;70.74
71621;BME280;59471;42.254;23.102;2022-12-01T13:26:45;95831.16;;;6.32;70.21
71621;BME280;59471;42.254;23.102;2022-12-01T13:29:16;95835.47;;;6.41;69.68
71621;BME280;59471;42.254;23.102;2022-12-01T13:31:46;95836.38;;;6.32;70.99
71621;BME280;59471;42.254;23.102;2022-12-01T13:34:37;95838.97;;;6.32;69.53
71621;BME280;59471;42.254;23.102;2022-12-01T13:37:06;95838.97;;;6.14;70.58
71621;BME280;59471;42.254;23.102;2022-12-01T13:39:35;95840.84;;;6.21;70.13
71621;BME280;59471;42.254;23.102;2022-12-01T13:42:20;95840.75;;;6.13;69.89
71621;BME280;59471;42.254;23.102;2022-12-01T13:44:59;95843.50;;;6.30;69.40
71621;BME280;59471;42.254;23.102;2022-12-01T13:47:40;95843.88;;;6.17;70.43
71621;BME280;59471;42.254;23.102;2022-12-01T13:50:52;95844.63;;;6.09;70.44
71621;BME280;59471;42.254;23.102;2022-12-01T13:53:31;95842.16;;;6.25;69.73
71621;BME280;59471;42.254;23.102;2022-12-01T13:56:19;95851.63;;;6.09;69.80
71621;BME280;59471;42.254;23.102;2022-12-01T13:58:51;95856.88;;;5.99;70.50
71621;BME280;59471;42.254;23.102;2022-12-01T14:06:41;95858.66;;;6.16;69.33
71621;BME280;59471;42.254;23.102;2022-12-01T14:09:37;95863.84;;;5.98;70.75
71621;BME280;59471;42.254;23.102;2022-12-01T14:12:14;95862.63;;;6.02;70.59
71621;BME280;59471;42.254;23.102;2022-12-01T14:14:53;95853.31;;;6.00;70.35
71621;BME280;59471;42.254;23.102;2022-12-01T14:20:23;95863.09;;;5.88;71.36
71621;BME280;59471;42.254;23.102;2022-12-01T14:34:07;95874.47;;;6.05;70.60
71621;BME280;59471;42.254;23.102;2022-12-01T14:36:47;95867.13;;;6.00;70.67
71621;BME280;59471;42.254;23.102;2022-12-01T14:39:26;95872.81;;;5.86;71.39
71621;BME280;59471;42.254;23.102;2022-12-01T14:42:46;95872.97;;;5.85;71.44
71621;BME280;59471;42.254;23.102;2022-12-01T14:45:24;95878.53;;;5.90;71.07
71621;BME280;59471;42.254;23.102;2022-12-01T14:48:02;95885.97;;;5.85;71.96
71621;BME280;59471;42.254;23.102;2022-12-01T14:50:50;95889.53;;;5.84;71.53
71621;BME280;59471;42.254;23.102;2022-12-01T14:53:28;95891.53;;;5.90;71.03
71621;BME280;59471;42.254;23.102;2022-12-01T14:55:58;95898.84;;;5.76;71.76
71621;BME280;59471;42.254;23.102;2022-12-01T14:58:29;95896.66;;;5.81;71.54
71621;BME280;59471;42.254;23.102;2022-12-01T15:01:01;95907.91;;;5.72;71.96
71621;BME280;59471;42.254;23.102;2022-12-01T15:03:32;95907.03;;;5.81;71.87
71621;BME280;59471;42.254;23.102;2022-12-01T15:06:22;95910.31;;;5.84;71.69
71621;BME280;59471;42.254;23.102;2022-12-01T15:12:00;95917.25;;;5.65;71.77
71621;BME280;59471;42.254;23.102;2022-12-01T15:14:37;95901.63;;;5.47;73.25
71621;BME280;59471;42.254;23.102;2022-12-01T15:17:27;95904.25;;;5.38;73.94
71621;BME280;59471;42.254;23.102;2022-12-01T15:19:57;95900.34;;;5.51;72.26
71621;BME280;59471;42.254;23.102;2022-12-01T15:22:28;95907.44;;;5.59;72.26
71621;BME280;59471;42.254;23.102;2022-12-01T15:25:05;95908.53;;;5.56;72.53
71621;BME280;59471;42.254;23.102;2022-12-01T15:27:32;95913.50;;;5.50;72.52
71621;BME280;59471;42.254;23.102;2022-12-01T15:29:58;95911.59;;;5.52;72.64
71621;BME280;59471;42.254;23.102;2022-12-01T15:32:30;95917.84;;;5.59;72.68